Terminal Aerodrome Forecast
Issued by NWS

Home | Current Version | Previous Version | Text Only | Print | Product List | Glossary On
Versions: 1 2 3 4 5 6 7 8 9 10 11 12 13 14 15 16 17
000
FTAK31 PAFA 201138
TAFASC
TAF
PASC 201138Z 2012/2112 05017KT P6SM SKC
     FM202300 03008KT 1 1/2SM BR SCT250
     FM210300 01006KT 4SM BR FEW250
     FM210600 05006KT P6SM SCT250=

USA.gov is the U.S. government's official web portal to all federal, state and local government web resources and services.